createdAt,value
2022-12-26T00:00:58.624Z,92.56
2022-12-26T00:03:26.126Z,93.31
2022-12-26T00:05:53.285Z,93.42
2022-12-26T00:08:20.186Z,92.57
2022-12-26T00:10:47.085Z,93.06
2022-12-26T00:13:38.570Z,94.43
2022-12-26T00:16:12.021Z,94.45
2022-12-26T00:18:39.792Z,94.41
2022-12-26T00:21:08.934Z,95.07
2022-12-26T00:23:36.962Z,95.07
2022-12-26T00:26:05.848Z,95.32
2022-12-26T00:28:33.105Z,94.78
2022-12-26T00:31:04.557Z,94.92
2022-12-26T00:33:31.630Z,94.46
2022-12-26T00:36:07.786Z,94.62
2022-12-26T00:38:37.485Z,94.65
2022-12-26T00:41:05.202Z,94.13
2022-12-26T00:43:32.788Z,94.31
2022-12-26T00:46:00.697Z,94.14
2022-12-26T00:48:28.119Z,93.83
2022-12-26T00:50:55.538Z,93.45
2022-12-26T00:53:23.473Z,93.40
2022-12-26T00:55:51.609Z,94.01
2022-12-26T00:58:19.765Z,94.08
2022-12-26T01:00:47.063Z,93.40
2022-12-26T01:03:14.592Z,93.97
2022-12-26T01:05:46.962Z,94.58
2022-12-26T01:08:21.755Z,94.20
2022-12-26T01:10:50.864Z,93.81
2022-12-26T01:13:17.799Z,93.77
2022-12-26T01:15:52.403Z,93.96
2022-12-26T01:18:20.217Z,94.23
2022-12-26T01:20:47.633Z,93.48
2022-12-26T01:23:14.863Z,93.39
2022-12-26T01:26:15.045Z,93.78
2022-12-26T01:28:28.931Z,93.83
2022-12-26T01:30:55.845Z,94.15
2022-12-26T01:33:22.757Z,93.87
2022-12-26T01:35:53.491Z,93.82
2022-12-26T01:38:21.698Z,93.45
2022-12-26T01:40:49.701Z,93.41
2022-12-26T01:43:17.301Z,92.87
2022-12-26T01:45:50.909Z,92.19
2022-12-26T01:48:20.549Z,92.88
2022-12-26T01:50:53.531Z,93.14
2022-12-26T01:53:22.547Z,92.54
2022-12-26T01:55:57.076Z,92.13
2022-12-26T01:58:30.813Z,92.02
2022-12-26T02:00:58.241Z,93.20
2022-12-26T02:03:43.720Z,92.96
2022-12-26T02:06:13.468Z,93.43
2022-12-26T02:08:40.738Z,93.66
2022-12-26T02:11:19.521Z,93.57
2022-12-26T02:13:46.668Z,93.50
2022-12-26T02:16:16.686Z,93.76
2022-12-26T02:18:44.262Z,94.26
2022-12-26T02:21:11.091Z,94.43
2022-12-26T02:23:49.880Z,93.55
2022-12-26T02:27:01.252Z,94.06
2022-12-26T02:29:46.996Z,94.18
2022-12-26T02:32:28.743Z,94.23
2022-12-26T02:35:37.563Z,94.15
2022-12-26T02:38:10.251Z,94.16
2022-12-26T02:40:52.896Z,93.39
2022-12-26T02:43:46.215Z,93.76
2022-12-26T02:46:56.751Z,93.74
2022-12-26T02:49:32.694Z,92.62
2022-12-26T02:52:30.370Z,92.61
2022-12-26T02:55:39.897Z,92.64
2022-12-26T02:58:41.649Z,92.31
2022-12-26T03:01:51.139Z,92.34
2022-12-26T03:04:41.271Z,92.36
2022-12-26T03:07:34.926Z,92.09
2022-12-26T03:10:25.137Z,92.49
2022-12-26T03:13:11.509Z,92.04
2022-12-26T03:16:07.397Z,90.83
2022-12-26T03:18:57.148Z,91.31
2022-12-26T03:21:31.714Z,91.54
2022-12-26T03:23:58.695Z,92.05
2022-12-26T03:26:41.232Z,92.89
2022-12-26T03:29:38.095Z,93.67
2022-12-26T03:32:08.817Z,93.02
2022-12-26T03:34:43.720Z,92.10
2022-12-26T03:37:49.195Z,92.09
2022-12-26T03:40:54.294Z,92.74
2022-12-26T03:44:17.464Z,92.49
2022-12-26T03:47:28.363Z,93.36
2022-12-26T03:50:18.644Z,93.66
2022-12-26T03:53:22.000Z,93.64
2022-12-26T03:56:14.277Z,93.34
2022-12-26T03:59:15.666Z,92.70
2022-12-26T04:02:04.961Z,91.87
2022-12-26T04:04:55.597Z,90.39
2022-12-26T04:08:03.920Z,90.81
2022-12-26T04:10:52.912Z,89.90
2022-12-26T04:13:47.610Z,91.46
2022-12-26T04:16:43.801Z,91.56
2022-12-26T04:19:32.215Z,91.68
2022-12-26T04:22:37.505Z,91.25
2022-12-26T04:25:48.553Z,91.30
2022-12-26T04:28:37.954Z,91.18
2022-12-26T04:31:35.828Z,89.76
2022-12-26T04:34:28.099Z,88.80
2022-12-26T04:37:21.984Z,89.00
2022-12-26T04:40:10.106Z,90.51
2022-12-26T04:42:56.988Z,90.58
2022-12-26T04:45:24.175Z,90.85
2022-12-26T04:48:10.151Z,90.97
2022-12-26T04:50:37.289Z,91.11
2022-12-26T04:53:04.463Z,90.58
2022-12-26T04:55:33.381Z,89.56
2022-12-26T04:58:00.571Z,88.73
2022-12-26T05:00:28.663Z,89.49
2022-12-26T05:03:18.970Z,87.45
2022-12-26T05:06:14.026Z,87.27
2022-12-26T05:09:05.149Z,86.46
2022-12-26T05:11:34.568Z,85.64
2022-12-26T05:14:01.835Z,85.34
2022-12-26T05:16:47.883Z,84.23
2022-12-26T05:19:36.047Z,84.01
2022-12-26T05:22:23.152Z,85.05
2022-12-26T05:25:08.822Z,84.05
2022-12-26T05:27:58.211Z,83.99
2022-12-26T05:30:25.510Z,84.03
2022-12-26T05:33:11.235Z,84.89
2022-12-26T05:35:39.600Z,85.63
2022-12-26T05:38:06.641Z,84.79
2022-12-26T05:40:33.562Z,86.22
2022-12-26T05:43:00.583Z,86.03
2022-12-26T05:45:27.548Z,85.93
2022-12-26T05:48:01.798Z,85.71
2022-12-26T05:50:29.169Z,86.22
2022-12-26T05:52:59.912Z,85.99
2022-12-26T05:55:27.111Z,86.51
2022-12-26T05:57:53.994Z,86.06
2022-12-26T06:00:21.431Z,85.85
2022-12-26T06:02:48.725Z,85.89
2022-12-26T06:05:15.994Z,85.89
2022-12-26T06:07:42.958Z,85.33
2022-12-26T06:10:10.754Z,85.53
2022-12-26T06:12:38.948Z,86.18
2022-12-26T06:15:06.620Z,86.66
2022-12-26T06:17:33.585Z,85.96
2022-12-26T06:20:00.648Z,85.68
2022-12-26T06:22:29.912Z,85.01
2022-12-26T06:24:57.119Z,85.51
2022-12-26T06:27:24.128Z,85.66
2022-12-26T06:29:51.064Z,85.62
2022-12-26T06:32:18.003Z,85.31
2022-12-26T06:34:44.944Z,84.91
2022-12-26T06:37:11.832Z,84.27
2022-12-26T06:39:38.725Z,83.65
2022-12-26T06:42:05.723Z,83.17
2022-12-26T06:44:32.603Z,81.64
2022-12-26T06:46:59.596Z,81.33
2022-12-26T06:49:32.714Z,81.89
2022-12-26T06:52:00.437Z,82.28
2022-12-26T06:54:27.335Z,82.11
2022-12-26T06:56:54.402Z,82.91
2022-12-26T06:59:21.409Z,81.75
2022-12-26T07:01:48.445Z,80.63
2022-12-26T07:04:15.500Z,80.33
2022-12-26T07:06:42.713Z,79.74
2022-12-26T07:09:14.688Z,79.78
2022-12-26T07:11:44.506Z,80.15
2022-12-26T07:14:12.070Z,79.73
2022-12-26T07:16:41.180Z,80.21
2022-12-26T07:19:10.271Z,80.50
2022-12-26T07:21:40.844Z,78.37
2022-12-26T07:24:17.780Z,78.46
2022-12-26T07:26:46.410Z,78.69
2022-12-26T07:29:14.143Z,77.93
2022-12-26T07:31:41.773Z,77.02
2022-12-26T07:34:09.168Z,76.26
2022-12-26T07:36:36.126Z,76.14
2022-12-26T07:39:03.202Z,75.80
2022-12-26T07:41:48.731Z,75.47
2022-12-26T07:44:15.662Z,75.20
2022-12-26T07:46:43.539Z,75.23
2022-12-26T07:49:12.573Z,73.54
2022-12-26T07:51:39.792Z,74.92
2022-12-26T07:54:11.093Z,75.16
2022-12-26T07:56:38.243Z,76.77
2022-12-26T07:59:05.230Z,75.09
2022-12-26T08:01:32.457Z,73.39
2022-12-26T08:03:59.611Z,72.61
2022-12-26T08:06:26.552Z,72.59
2022-12-26T08:08:53.456Z,72.44
2022-12-26T08:11:24.470Z,70.62
2022-12-26T08:13:52.760Z,71.32
2022-12-26T08:16:20.875Z,71.27
2022-12-26T08:18:47.939Z,70.28
2022-12-26T08:21:14.923Z,70.31
2022-12-26T08:23:41.938Z,69.88
2022-12-26T08:26:11.726Z,69.14
2022-12-26T08:28:42.228Z,69.24
2022-12-26T08:31:10.625Z,66.54
2022-12-26T08:33:37.654Z,64.56
2022-12-26T08:36:07.234Z,65.06
2022-12-26T08:38:34.360Z,62.84
2022-12-26T08:41:01.782Z,58.90
2022-12-26T08:43:53.222Z,58.33
2022-12-26T08:46:16.268Z,58.76
2022-12-26T08:48:43.574Z,56.82
2022-12-26T08:51:16.114Z,56.69
2022-12-26T08:53:43.458Z,56.05
2022-12-26T08:56:16.668Z,55.05
2022-12-26T08:58:44.057Z,55.47
2022-12-26T09:01:16.866Z,54.03
2022-12-26T09:03:45.025Z,57.24
2022-12-26T09:06:13.771Z,59.36
2022-12-26T09:08:41.838Z,58.43
2022-12-26T09:11:16.075Z,58.36
2022-12-26T09:13:43.665Z,58.15
2022-12-26T09:16:16.379Z,57.94
2022-12-26T09:18:44.613Z,58.27
2022-12-26T09:21:13.382Z,56.97
2022-12-26T09:23:41.487Z,58.07
2022-12-26T09:26:11.695Z,59.04
2022-12-26T09:28:38.953Z,58.41
2022-12-26T09:31:08.379Z,56.88
2022-12-26T09:33:37.815Z,57.01
2022-12-26T09:36:14.472Z,55.16
2022-12-26T09:38:42.975Z,54.38
2022-12-26T09:41:15.449Z,53.84
2022-12-26T09:43:54.846Z,55.32
2022-12-26T10:17:39.728Z,56.30
2022-12-26T10:20:15.670Z,52.35
2022-12-26T10:22:57.784Z,52.15
2022-12-26T10:25:42.472Z,50.97
2022-12-26T10:28:28.592Z,51.67
2022-12-26T10:30:57.981Z,52.68
2022-12-26T10:33:49.367Z,52.03
2022-12-26T10:36:40.673Z,51.10
2022-12-26T10:39:22.537Z,50.69
2022-12-26T10:41:56.991Z,50.13
2022-12-26T10:44:27.896Z,51.49
2022-12-26T10:47:19.431Z,52.41
2022-12-26T10:49:47.900Z,52.77
2022-12-26T10:52:17.789Z,51.42
2022-12-26T10:54:51.252Z,51.78
2022-12-26T10:57:41.643Z,50.85
2022-12-26T11:00:25.461Z,51.48
2022-12-26T11:03:07.780Z,50.70
2022-12-26T11:06:07.067Z,51.88
2022-12-26T11:08:43.263Z,51.50
2022-12-26T11:11:21.171Z,51.33
2022-12-26T11:14:01.807Z,50.27
2022-12-26T11:16:34.112Z,52.77
2022-12-26T11:19:01.734Z,51.06
2022-12-26T11:21:31.012Z,52.51
2022-12-26T11:24:21.036Z,51.66
2022-12-26T11:26:48.691Z,51.49
2022-12-26T11:29:19.184Z,51.26
2022-12-26T11:31:59.471Z,52.48
2022-12-26T11:34:46.306Z,52.65
2022-12-26T11:37:23.887Z,52.88
2022-12-26T11:39:52.475Z,52.55
2022-12-26T11:42:23.836Z,52.50
2022-12-26T11:44:55.325Z,53.09
2022-12-26T11:47:29.886Z,53.19
2022-12-26T11:50:25.212Z,54.03
2022-12-26T11:52:56.686Z,54.05
2022-12-26T11:55:26.646Z,55.23
2022-12-26T11:57:58.857Z,55.32
2022-12-26T12:00:27.268Z,56.87
2022-12-26T12:02:54.979Z,55.44
2022-12-26T12:05:45.141Z,55.10
2022-12-26T12:08:20.905Z,55.98
2022-12-26T12:11:09.386Z,55.31
2022-12-26T12:13:51.293Z,54.82
2022-12-26T12:16:40.280Z,54.30
2022-12-26T12:19:23.304Z,54.51
2022-12-26T12:22:19.708Z,55.76
2022-12-26T12:24:55.680Z,55.05
2022-12-26T12:27:32.190Z,54.71
2022-12-26T12:30:11.030Z,55.63
2022-12-26T12:33:01.259Z,54.70
2022-12-26T12:35:36.846Z,55.57
2022-12-26T12:38:22.342Z,55.45
2022-12-26T12:41:11.037Z,55.66
2022-12-26T12:43:42.283Z,56.12
2022-12-26T12:46:15.585Z,55.75
2022-12-26T12:48:55.864Z,55.60
2022-12-26T12:51:50.463Z,56.44
2022-12-26T12:54:41.515Z,55.57
2022-12-26T12:57:17.439Z,55.73
2022-12-26T13:00:14.922Z,55.79
2022-12-26T13:02:55.759Z,55.79
2022-12-26T13:05:43.790Z,56.24
2022-12-26T13:08:30.922Z,57.61
2022-12-26T13:11:16.778Z,58.59
2022-12-26T13:13:53.716Z,59.56
2022-12-26T13:16:29.006Z,59.86
2022-12-26T13:19:07.005Z,60.62
2022-12-26T13:21:37.532Z,60.90
2022-12-26T13:24:25.445Z,60.31
2022-12-26T13:27:08.072Z,60.63
2022-12-26T13:29:39.167Z,60.85
2022-12-26T13:32:31.403Z,61.60
2022-12-26T13:35:01.181Z,62.41
2022-12-26T13:37:40.289Z,63.48
2022-12-26T13:40:13.537Z,62.93
2022-12-26T13:43:08.660Z,63.85
2022-12-26T13:45:35.669Z,64.47
2022-12-26T13:48:18.007Z,63.91
2022-12-26T13:50:56.005Z,65.53
2022-12-26T13:53:26.542Z,66.03
2022-12-26T13:56:03.427Z,66.37
2022-12-26T13:58:48.807Z,67.44
2022-12-26T14:01:30.536Z,67.87
2022-12-26T14:04:34.584Z,68.15
2022-12-26T14:07:28.916Z,68.83
2022-12-26T14:10:09.936Z,69.06
2022-12-26T14:13:27.859Z,69.46
2022-12-26T14:16:05.804Z,70.14
2022-12-26T14:18:44.204Z,70.09
2022-12-26T14:21:29.478Z,70.35
2022-12-26T14:24:13.147Z,71.43
2022-12-26T14:26:55.754Z,71.89
2022-12-26T14:29:34.355Z,72.20
2022-12-26T14:32:21.504Z,72.83
2022-12-26T14:34:51.215Z,73.89
2022-12-26T14:37:30.362Z,74.46
2022-12-26T14:39:57.305Z,74.47
2022-12-26T14:42:44.791Z,75.15
2022-12-26T14:45:31.825Z,76.21
2022-12-26T14:47:59.189Z,76.42
2022-12-26T14:50:42.383Z,77.27
2022-12-26T14:53:27.538Z,77.64
2022-12-26T14:56:14.098Z,77.51
2022-12-26T14:58:48.720Z,78.31
2022-12-26T15:01:15.980Z,78.41
2022-12-26T15:04:02.323Z,78.41
2022-12-26T15:06:39.534Z,79.20
2022-12-26T15:09:15.323Z,78.75
2022-12-26T15:12:32.818Z,78.83
2022-12-26T15:15:08.711Z,79.04
2022-12-26T15:17:41.662Z,79.59
2022-12-26T15:20:37.753Z,79.49
2022-12-26T15:23:38.464Z,79.71
2022-12-26T15:26:31.336Z,80.07
2022-12-26T15:29:16.221Z,79.59
2022-12-26T15:32:04.243Z,79.64
2022-12-26T15:34:58.728Z,79.79
2022-12-26T15:37:42.137Z,79.04
2022-12-26T15:40:16.223Z,79.44
2022-12-26T15:42:45.821Z,79.54
2022-12-26T15:45:37.120Z,79.30
2022-12-26T15:48:25.855Z,79.98
2022-12-26T15:51:31.273Z,79.86
2022-12-26T15:54:16.983Z,80.19
2022-12-26T15:56:56.479Z,80.34
2022-12-26T16:00:03.844Z,80.17
2022-12-26T16:03:13.769Z,80.40
2022-12-26T16:05:44.925Z,80.14
2022-12-26T16:08:54.441Z,80.05
2022-12-26T16:11:29.636Z,80.13
2022-12-26T16:14:02.691Z,80.15
2022-12-26T16:16:33.601Z,80.20
2022-12-26T16:19:22.949Z,80.35
2022-12-26T16:22:15.941Z,80.21
2022-12-26T16:24:44.284Z,80.21
2022-12-26T16:27:16.829Z,79.85
2022-12-26T16:29:51.613Z,80.01
2022-12-26T16:32:21.672Z,80.37
2022-12-26T16:34:49.688Z,79.97
2022-12-26T16:37:24.304Z,79.82
2022-12-26T16:40:06.681Z,80.07
2022-12-26T16:42:33.941Z,80.25
2022-12-26T16:45:01.859Z,80.10
2022-12-26T16:47:32.015Z,79.67
2022-12-26T16:50:00.091Z,79.67
2022-12-26T16:52:45.848Z,79.82
2022-12-26T16:55:22.959Z,79.64
2022-12-26T16:57:52.569Z,79.43
2022-12-26T17:00:21.881Z,79.89
2022-12-26T17:02:53.464Z,79.41
2022-12-26T17:05:26.907Z,79.63
2022-12-26T17:07:56.187Z,79.33
2022-12-26T17:10:27.943Z,79.64
2022-12-26T17:12:57.881Z,79.36
2022-12-26T17:15:30.002Z,79.06
2022-12-26T17:17:59.049Z,79.34
2022-12-26T17:20:26.150Z,79.72
2022-12-26T17:22:57.331Z,79.51
2022-12-26T17:25:29.681Z,79.26
2022-12-26T17:28:28.265Z,79.62
2022-12-26T17:30:55.389Z,79.85
2022-12-26T17:33:29.182Z,80.12
2022-12-26T17:38:48.855Z,79.60
2022-12-26T17:41:17.114Z,79.92
2022-12-26T17:43:45.547Z,79.62
2022-12-26T17:46:15.932Z,79.60
2022-12-26T17:48:43.758Z,80.28
2022-12-26T17:51:16.565Z,79.97
2022-12-26T17:53:48.645Z,80.09
2022-12-26T17:56:20.273Z,80.84
2022-12-26T17:58:48.279Z,80.71
2022-12-26T18:01:20.725Z,80.93
2022-12-26T18:03:48.749Z,81.16
2022-12-26T18:06:17.342Z,81.16
2022-12-26T18:08:45.146Z,81.37
2022-12-26T18:11:14.443Z,80.46
2022-12-26T18:13:42.385Z,80.61
2022-12-26T18:16:16.728Z,80.73
2022-12-26T18:18:45.090Z,81.55
2022-12-26T18:21:14.479Z,81.30
2022-12-26T18:23:42.004Z,81.57
2022-12-26T18:26:25.187Z,81.77
2022-12-26T18:28:52.747Z,81.31
2022-12-26T18:31:20.425Z,81.14
2022-12-26T18:33:47.443Z,81.59
2022-12-26T18:36:16.132Z,80.87
2022-12-26T18:38:43.489Z,81.60
2022-12-26T18:41:15.437Z,81.63
2022-12-26T18:43:42.587Z,81.54
2022-12-26T18:46:30.286Z,82.05
2022-12-26T18:48:57.655Z,81.96
2022-12-26T18:51:26.123Z,81.72
2022-12-26T18:53:53.297Z,82.07
2022-12-26T18:56:22.246Z,81.86
2022-12-26T18:58:57.422Z,81.50
2022-12-26T19:01:25.783Z,81.76
2022-12-26T19:03:53.971Z,82.43
2022-12-26T19:06:27.049Z,82.58
2022-12-26T19:08:54.000Z,82.33
2022-12-26T19:11:21.622Z,82.34
2022-12-26T19:13:48.934Z,82.35
2022-12-26T19:16:16.103Z,82.71
2022-12-26T19:18:43.123Z,82.81
2022-12-26T19:21:14.127Z,82.61
2022-12-26T19:23:42.063Z,82.77
2022-12-26T19:26:14.366Z,83.09
2022-12-26T19:28:41.421Z,83.22
2022-12-26T19:31:14.053Z,83.12
2022-12-26T19:33:41.191Z,83.22
2022-12-26T19:36:09.738Z,83.69
2022-12-26T19:38:37.285Z,82.94
2022-12-26T19:41:10.719Z,83.49
2022-12-26T19:43:38.458Z,83.46
2022-12-26T19:46:08.370Z,83.48
2022-12-26T19:48:36.872Z,83.80
2022-12-26T19:51:06.610Z,83.08
2022-12-26T19:53:34.641Z,83.86
2022-12-26T19:56:07.903Z,84.00
2022-12-26T19:58:34.800Z,83.71
2022-12-26T20:01:09.302Z,83.83
2022-12-26T20:03:37.110Z,83.36
2022-12-26T20:06:16.613Z,84.07
2022-12-26T20:08:45.216Z,83.59
2022-12-26T20:11:15.703Z,83.51
2022-12-26T20:13:44.354Z,83.55
2022-12-26T20:16:37.414Z,83.57
2022-12-26T20:19:01.664Z,84.25
2022-12-26T20:21:28.606Z,83.81
2022-12-26T20:24:01.353Z,83.73
2022-12-26T20:26:29.091Z,83.48
2022-12-26T20:28:58.517Z,83.60
2022-12-26T20:31:25.486Z,83.34
2022-12-26T20:33:52.863Z,82.68
2022-12-26T20:36:23.281Z,82.37
2022-12-26T20:38:58.660Z,83.04
2022-12-26T20:41:26.975Z,83.25
2022-12-26T20:43:54.205Z,82.25
2022-12-26T20:46:23.671Z,84.19
2022-12-26T20:48:51.132Z,84.01
2022-12-26T20:51:21.460Z,83.01
2022-12-26T20:53:48.326Z,82.86
2022-12-26T20:56:15.478Z,84.81
2022-12-26T20:58:42.648Z,83.71
2022-12-26T21:01:21.386Z,85.40
2022-12-26T21:03:51.724Z,83.65
2022-12-26T21:06:22.584Z,82.66
2022-12-26T21:08:51.263Z,82.54
2022-12-26T21:11:27.324Z,81.58
2022-12-26T21:13:59.869Z,83.17
2022-12-26T21:16:30.674Z,82.35
2022-12-26T21:18:58.231Z,82.43
2022-12-26T21:21:37.489Z,82.36
2022-12-26T21:24:07.495Z,81.33
2022-12-26T21:26:40.041Z,81.51
2022-12-26T21:29:09.311Z,80.34
2022-12-26T21:31:37.883Z,80.69
2022-12-26T21:34:05.333Z,81.43
2022-12-26T21:36:33.953Z,80.15
2022-12-26T21:39:05.876Z,80.48
2022-12-26T21:41:32.891Z,80.32
2022-12-26T21:43:59.865Z,81.53
2022-12-26T21:46:27.114Z,80.53
2022-12-26T21:48:55.489Z,80.00
2022-12-26T21:51:28.954Z,81.41
2022-12-26T21:54:15.793Z,80.70
2022-12-26T21:56:42.955Z,81.20
2022-12-26T21:59:28.430Z,79.79
2022-12-26T22:01:55.645Z,79.86
2022-12-26T22:04:23.912Z,79.63
2022-12-26T22:06:52.638Z,79.86
2022-12-26T22:09:19.746Z,79.16
2022-12-26T22:12:05.699Z,78.80
2022-12-26T22:14:32.699Z,78.70
2022-12-26T22:16:59.656Z,77.77
2022-12-26T22:19:26.594Z,77.67
2022-12-26T22:21:54.980Z,77.80
2022-12-26T22:24:22.594Z,78.10
2022-12-26T22:26:49.651Z,77.38
2022-12-26T22:29:17.098Z,77.03
2022-12-26T22:31:44.056Z,76.25
2022-12-26T22:34:13.968Z,76.62
2022-12-26T22:36:42.025Z,76.34
2022-12-26T22:39:13.335Z,75.86
2022-12-26T22:41:40.296Z,75.43
2022-12-26T22:44:12.485Z,76.10
2022-12-26T22:46:39.712Z,76.02
2022-12-26T22:49:06.727Z,75.97
2022-12-26T22:51:33.684Z,76.13
2022-12-26T22:54:01.894Z,75.56
2022-12-26T22:56:29.646Z,74.91
2022-12-26T22:59:03.110Z,75.72
2022-12-26T23:01:30.425Z,76.29
2022-12-26T23:03:57.854Z,75.48
2022-12-26T23:06:31.009Z,75.77
2022-12-26T23:09:01.296Z,75.19
2022-12-26T23:11:34.700Z,75.53
2022-12-26T23:14:05.067Z,75.58
2022-12-26T23:16:58.563Z,75.13
2022-12-26T23:20:07.159Z,75.56
2022-12-26T23:22:34.434Z,75.51
2022-12-26T23:25:01.305Z,76.10
2022-12-26T23:27:47.157Z,75.70
2022-12-26T23:30:20.279Z,74.89
2022-12-26T23:32:50.940Z,75.21
2022-12-26T23:35:19.647Z,75.77
2022-12-26T23:37:46.846Z,74.59
2022-12-26T23:40:18.017Z,74.80
2022-12-26T23:42:45.554Z,74.89
2022-12-26T23:45:14.177Z,74.73
2022-12-26T23:47:44.349Z,74.52
2022-12-26T23:50:13.104Z,75.51
2022-12-26T23:52:40.706Z,75.72
2022-12-26T23:55:08.078Z,75.67
2022-12-26T23:57:34.979Z,74.07
